createdAt,value
2023-01-30T00:01:45.085Z,17.67
2023-01-30T00:04:17.045Z,18.43
2023-01-30T00:06:46.209Z,18.03
2023-01-30T00:09:15.607Z,19.33
2023-01-30T00:11:44.645Z,17.90
2023-01-30T00:14:13.556Z,17.30
2023-01-30T00:16:42.398Z,18.13
2023-01-30T00:19:11.623Z,18.60
2023-01-30T00:21:40.455Z,18.33
2023-01-30T00:24:09.620Z,17.60
2023-01-30T00:26:38.514Z,18.27
2023-01-30T00:29:07.963Z,17.60
2023-01-30T00:31:37.460Z,16.53
2023-01-30T00:34:06.292Z,18.33
2023-01-30T00:36:37.183Z,16.47
2023-01-30T00:39:06.381Z,17.23
2023-01-30T00:41:50.202Z,16.37
2023-01-30T00:44:37.667Z,17.73
2023-01-30T00:47:08.344Z,15.67
2023-01-30T00:49:38.173Z,16.03
2023-01-30T00:52:07.328Z,16.30
2023-01-30T00:54:40.843Z,15.47
2023-01-30T00:57:09.805Z,15.90
2023-01-30T00:59:38.715Z,15.63
2023-01-30T01:02:07.565Z,14.77
2023-01-30T01:04:42.742Z,15.27
2023-01-30T01:07:15.913Z,14.57
2023-01-30T01:09:45.292Z,14.07
2023-01-30T01:12:14.375Z,13.83
2023-01-30T01:14:47.171Z,13.60
2023-01-30T01:17:16.095Z,14.57
2023-01-30T01:19:45.104Z,13.20
2023-01-30T01:22:13.993Z,13.43
2023-01-30T01:24:42.939Z,12.47
2023-01-30T01:27:11.954Z,12.63
2023-01-30T01:29:42.596Z,12.47
2023-01-30T01:32:12.083Z,12.53
2023-01-30T01:34:42.112Z,12.00
2023-01-30T01:37:11.324Z,11.70
2023-01-30T01:39:58.539Z,11.73
2023-01-30T01:42:34.168Z,11.80
2023-01-30T01:45:15.545Z,11.37
2023-01-30T01:47:49.839Z,11.20
2023-01-30T01:50:22.678Z,11.83
2023-01-30T01:52:54.448Z,10.37
2023-01-30T01:55:29.011Z,11.13
2023-01-30T01:58:03.734Z,11.30
2023-01-30T02:00:33.398Z,11.00
2023-01-30T02:03:07.942Z,11.53
2023-01-30T02:05:42.811Z,11.83
2023-01-30T02:08:18.008Z,11.83
2023-01-30T02:10:54.679Z,12.00
2023-01-30T02:13:26.118Z,12.20
2023-01-30T02:15:59.969Z,13.03
2023-01-30T02:18:31.111Z,12.33
2023-01-30T02:21:43.488Z,13.00
2023-01-30T02:24:39.909Z,13.20
2023-01-30T02:27:26.888Z,11.90
2023-01-30T02:30:23.477Z,13.70
2023-01-30T02:33:06.969Z,12.83
2023-01-30T02:35:47.373Z,12.17
2023-01-30T02:38:31.469Z,12.10
2023-01-30T02:41:11.583Z,10.95
2023-01-30T02:43:52.371Z,11.53
2023-01-30T02:46:26.320Z,11.80
2023-01-30T02:49:02.122Z,12.03
2023-01-30T02:51:35.004Z,11.83
2023-01-30T02:54:07.980Z,12.00
2023-01-30T02:56:49.610Z,11.80
2023-01-30T02:59:27.721Z,11.95
2023-01-30T03:02:32.738Z,11.37
2023-01-30T03:05:18.314Z,11.80
2023-01-30T03:07:59.772Z,11.47
2023-01-30T03:10:37.252Z,11.37
2023-01-30T03:13:17.126Z,11.33
2023-01-30T03:15:52.291Z,11.20
2023-01-30T03:18:22.596Z,11.23
2023-01-30T03:20:52.543Z,12.47
2023-01-30T03:23:22.408Z,11.27
2023-01-30T03:25:51.933Z,11.33
2023-01-30T03:28:21.991Z,12.37
2023-01-30T03:30:51.951Z,12.80
2023-01-30T03:33:21.212Z,13.80
2023-01-30T03:35:52.612Z,13.97
2023-01-30T03:38:21.909Z,12.97
2023-01-30T03:40:52.782Z,13.67
2023-01-30T03:43:22.039Z,14.37
2023-01-30T03:45:51.052Z,15.13
2023-01-30T03:48:20.091Z,14.43
2023-01-30T03:50:49.935Z,15.35
2023-01-30T03:53:19.240Z,14.80
2023-01-30T03:55:48.275Z,16.17
2023-01-30T03:58:19.114Z,15.47
2023-01-30T04:00:49.496Z,14.93
2023-01-30T04:03:19.075Z,15.13
2023-01-30T04:05:48.086Z,16.25
2023-01-30T04:08:17.516Z,15.43
2023-01-30T04:10:46.468Z,14.77
2023-01-30T04:13:15.922Z,14.10
2023-01-30T04:15:44.991Z,13.83
2023-01-30T04:18:33.496Z,13.97
2023-01-30T04:21:11.078Z,12.13
2023-01-30T04:23:42.484Z,14.07
2023-01-30T04:26:13.639Z,13.07
2023-01-30T04:28:44.572Z,13.20
2023-01-30T04:31:19.652Z,12.17
2023-01-30T04:34:21.346Z,12.10
2023-01-30T04:36:51.888Z,11.60
2023-01-30T04:39:22.201Z,12.17
2023-01-30T04:41:52.120Z,12.05
2023-01-30T04:44:21.634Z,10.40
2023-01-30T04:47:18.638Z,11.03
2023-01-30T04:49:47.939Z,10.88
2023-01-30T04:52:17.925Z,10.43
2023-01-30T04:54:46.933Z,10.47
2023-01-30T04:57:17.407Z,9.85
2023-01-30T04:59:46.507Z,10.30
2023-01-30T05:02:16.911Z,10.13
2023-01-30T05:04:48.751Z,9.83
2023-01-30T05:07:19.657Z,9.37
2023-01-30T05:09:51.589Z,10.40
2023-01-30T05:12:20.720Z,9.50
2023-01-30T05:14:49.618Z,10.23
2023-01-30T05:17:18.606Z,9.90
2023-01-30T05:19:47.843Z,10.13
2023-01-30T05:22:16.905Z,9.37
2023-01-30T05:24:46.029Z,11.93
2023-01-30T05:27:14.985Z,12.20
2023-01-30T05:29:45.153Z,10.67
2023-01-30T05:32:15.443Z,9.10
2023-01-30T05:34:44.828Z,10.00
2023-01-30T05:37:14.761Z,9.57
2023-01-30T05:39:43.636Z,10.07
2023-01-30T05:42:12.492Z,66.93
2023-01-30T05:44:41.550Z,23.03
2023-01-30T05:47:10.540Z,16.17
2023-01-30T05:49:39.724Z,13.70
2023-01-30T05:52:09.133Z,16.23
2023-01-30T05:54:38.398Z,15.67
2023-01-30T05:57:07.408Z,11.13
2023-01-30T05:59:36.581Z,10.30
2023-01-30T06:02:06.131Z,11.47
2023-01-30T06:04:35.638Z,10.97
2023-01-30T06:07:07.404Z,11.83
2023-01-30T06:09:36.590Z,11.65
2023-01-30T06:12:08.110Z,12.07
2023-01-30T06:14:37.285Z,10.60
2023-01-30T06:17:06.522Z,10.17
2023-01-30T06:19:35.936Z,9.97
2023-01-30T06:22:06.007Z,11.70
2023-01-30T06:24:35.009Z,12.20
2023-01-30T06:27:04.584Z,13.27
2023-01-30T06:29:34.195Z,12.97
2023-01-30T06:32:03.376Z,13.53
2023-01-30T06:34:33.821Z,14.83
2023-01-30T06:37:03.007Z,15.27
2023-01-30T06:39:32.875Z,17.50
2023-01-30T06:42:02.218Z,13.70
2023-01-30T06:44:32.028Z,11.00
2023-01-30T06:47:01.052Z,10.43
2023-01-30T06:49:29.936Z,14.40
2023-01-30T06:51:59.923Z,12.23
2023-01-30T06:54:29.070Z,12.03
2023-01-30T06:56:58.285Z,10.63
2023-01-30T06:59:29.207Z,12.63
2023-01-30T07:01:58.860Z,10.73
2023-01-30T07:04:28.243Z,12.43
2023-01-30T07:06:57.615Z,11.27
2023-01-30T07:09:28.718Z,11.83
2023-01-30T07:11:59.110Z,12.00
2023-01-30T07:14:28.554Z,11.40
2023-01-30T07:16:57.633Z,12.37
2023-01-30T07:19:29.191Z,12.20
2023-01-30T07:21:58.497Z,12.67
2023-01-30T07:24:28.568Z,13.97
2023-01-30T07:26:57.556Z,24.63
2023-01-30T07:29:28.974Z,43.77
2023-01-30T07:31:58.493Z,26.47
2023-01-30T07:34:28.857Z,30.03
2023-01-30T07:36:57.986Z,15.93
2023-01-30T07:39:28.746Z,29.83
2023-01-30T07:41:59.941Z,21.50
2023-01-30T07:44:29.211Z,14.53
2023-01-30T07:46:58.369Z,13.20
2023-01-30T07:49:28.791Z,13.30
2023-01-30T07:51:57.800Z,16.20
2023-01-30T07:54:29.248Z,15.33
2023-01-30T07:56:59.756Z,13.33
2023-01-30T07:59:28.734Z,15.73
2023-01-30T08:01:58.263Z,17.17
2023-01-30T08:04:39.452Z,17.57
2023-01-30T08:07:08.389Z,16.23
2023-01-30T08:09:38.807Z,15.70
2023-01-30T08:12:07.806Z,15.83
2023-01-30T08:14:37.876Z,17.20
2023-01-30T08:17:12.610Z,29.20
2023-01-30T08:19:41.804Z,23.77
2023-01-30T08:22:13.318Z,17.80
2023-01-30T08:24:43.224Z,18.00
2023-01-30T08:27:12.215Z,18.13
2023-01-30T08:29:41.413Z,17.07
2023-01-30T08:32:10.905Z,18.37
2023-01-30T08:34:40.203Z,17.80
2023-01-30T08:37:09.136Z,20.40
2023-01-30T08:39:38.273Z,20.45
2023-01-30T08:42:07.257Z,20.35
2023-01-30T08:44:36.262Z,20.13
2023-01-30T08:47:05.838Z,18.83
2023-01-30T08:49:35.404Z,19.00
2023-01-30T08:52:05.033Z,20.67
2023-01-30T08:54:34.225Z,20.23
2023-01-30T08:57:03.472Z,19.00
2023-01-30T08:59:34.031Z,19.67
2023-01-30T09:02:03.913Z,26.47
2023-01-30T09:04:33.315Z,21.40
2023-01-30T09:07:02.835Z,24.80
2023-01-30T09:09:32.467Z,22.57
2023-01-30T09:12:01.536Z,25.40
2023-01-30T09:14:34.245Z,22.90
2023-01-30T09:17:03.441Z,21.50
2023-01-30T09:19:37.111Z,22.83
2023-01-30T09:22:07.432Z,20.47
2023-01-30T09:24:37.272Z,24.70
2023-01-30T09:27:06.405Z,21.77
2023-01-30T09:29:35.888Z,20.07
2023-01-30T09:32:05.921Z,20.77
2023-01-30T09:34:35.277Z,19.60
2023-01-30T09:37:07.735Z,18.45
2023-01-30T09:39:37.362Z,18.40
2023-01-30T09:42:43.257Z,18.83
2023-01-30T09:45:36.775Z,18.47
2023-01-30T09:48:18.112Z,19.07
2023-01-30T09:51:09.723Z,20.77
2023-01-30T09:54:01.061Z,20.10
2023-01-30T09:56:35.738Z,17.13
2023-01-30T09:59:07.254Z,19.30
2023-01-30T10:01:48.828Z,20.97
2023-01-30T10:04:27.831Z,18.20
2023-01-30T10:07:05.198Z,18.63
2023-01-30T10:09:43.516Z,17.83
2023-01-30T10:12:28.257Z,21.40
2023-01-30T10:15:14.917Z,21.93
2023-01-30T10:17:55.272Z,20.47
2023-01-30T10:20:35.914Z,21.33
2023-01-30T10:23:40.768Z,37.23
2023-01-30T10:26:13.573Z,27.35
2023-01-30T10:29:06.072Z,19.47
2023-01-30T10:31:44.461Z,20.12
2023-01-30T10:34:19.629Z,16.37
2023-01-30T10:36:55.898Z,18.50
2023-01-30T10:39:49.611Z,42.37
2023-01-30T10:42:32.273Z,23.23
2023-01-30T10:45:11.608Z,20.87
2023-01-30T10:47:56.254Z,25.63
2023-01-30T10:53:10.048Z,28.65
2023-01-30T10:55:45.753Z,44.10
2023-01-30T10:58:25.946Z,37.37
2023-01-30T11:01:00.229Z,25.97
2023-01-30T11:06:10.981Z,16.80
2023-01-30T11:08:40.234Z,15.30
2023-01-30T11:11:29.550Z,16.10
2023-01-30T11:14:07.104Z,14.73
2023-01-30T11:16:44.713Z,14.67
2023-01-30T11:19:20.370Z,14.63
2023-01-30T11:21:53.975Z,13.97
2023-01-30T11:24:29.901Z,14.43
2023-01-30T11:27:12.715Z,13.03
2023-01-30T11:29:42.479Z,13.10
2023-01-30T11:32:22.243Z,15.20
2023-01-30T11:35:11.865Z,16.13
2023-01-30T11:37:43.682Z,16.40
2023-01-30T11:40:27.543Z,14.55
2023-01-30T11:43:04.990Z,16.20
2023-01-30T11:45:40.941Z,15.00
2023-01-30T11:48:33.846Z,12.60
2023-01-30T11:51:09.833Z,11.90
2023-01-30T11:53:44.957Z,12.40
2023-01-30T11:56:23.101Z,12.05
2023-01-30T11:58:58.386Z,11.35
2023-01-30T12:01:35.472Z,12.50
2023-01-30T12:04:11.857Z,12.57
2023-01-30T12:06:42.934Z,11.63
2023-01-30T12:09:33.285Z,13.33
2023-01-30T12:12:02.835Z,13.13
2023-01-30T12:14:44.319Z,12.73
2023-01-30T12:17:22.500Z,12.47
2023-01-30T12:20:03.171Z,12.87
2023-01-30T12:22:38.176Z,13.37
2023-01-30T12:25:17.855Z,14.60
2023-01-30T12:27:56.138Z,13.50
2023-01-30T12:30:34.513Z,14.20
2023-01-30T12:33:06.252Z,14.03
2023-01-30T12:35:50.282Z,13.60
2023-01-30T12:38:33.779Z,12.63
2023-01-30T12:41:19.059Z,13.40
2023-01-30T12:44:07.153Z,12.17
2023-01-30T12:46:55.051Z,13.30
2023-01-30T12:49:43.979Z,11.53
2023-01-30T12:52:33.648Z,11.03
2023-01-30T12:55:16.402Z,12.47
2023-01-30T12:57:52.034Z,11.05
2023-01-30T13:03:14.842Z,12.37
2023-01-30T13:05:53.845Z,13.13
2023-01-30T13:08:39.907Z,12.87
2023-01-30T13:11:22.986Z,12.50
2023-01-30T13:13:57.830Z,15.50
2023-01-30T13:16:36.546Z,14.17
2023-01-30T13:19:13.028Z,14.30
2023-01-30T13:21:47.009Z,14.63
2023-01-30T13:24:22.367Z,14.33
2023-01-30T13:26:57.890Z,15.30
2023-01-30T13:29:37.918Z,14.53
2023-01-30T13:32:14.928Z,15.07
2023-01-30T13:34:48.313Z,13.87
2023-01-30T13:37:19.362Z,15.13
2023-01-30T13:39:52.510Z,15.13
2023-01-30T13:42:33.642Z,15.80
2023-01-30T13:45:06.636Z,17.53
2023-01-30T13:47:50.917Z,36.77
2023-01-30T13:50:34.316Z,19.57
2023-01-30T13:53:08.541Z,17.20
2023-01-30T13:55:47.617Z,22.87
2023-01-30T13:58:34.083Z,15.70
2023-01-30T14:01:04.719Z,13.13
2023-01-30T14:03:34.893Z,13.57
2023-01-30T14:06:32.881Z,12.23
2023-01-30T14:09:17.604Z,13.53
2023-01-30T14:14:37.746Z,13.70
2023-01-30T14:17:15.417Z,13.87
2023-01-30T14:19:53.988Z,13.90
2023-01-30T14:22:42.058Z,14.07
2023-01-30T14:25:43.365Z,13.13
2023-01-30T14:28:51.391Z,13.37
2023-01-30T14:31:54.539Z,14.57
2023-01-30T14:34:44.548Z,13.93
2023-01-30T14:37:50.855Z,13.47
2023-01-30T14:40:36.765Z,13.47
2023-01-30T14:43:39.878Z,13.00
2023-01-30T14:46:54.470Z,13.55
2023-01-30T14:49:35.402Z,13.77
2023-01-30T14:52:23.741Z,13.73
2023-01-30T14:54:59.636Z,12.97
2023-01-30T14:57:34.253Z,13.77
2023-01-30T15:02:55.824Z,14.00
2023-01-30T15:05:36.421Z,14.10
2023-01-30T15:08:16.322Z,13.83
2023-01-30T15:11:10.597Z,13.73
2023-01-30T15:14:02.549Z,16.10
2023-01-30T15:17:09.347Z,14.93
2023-01-30T15:19:57.923Z,17.03
2023-01-30T15:22:48.405Z,13.70
2023-01-30T15:25:34.472Z,13.90
2023-01-30T15:28:35.535Z,14.20
2023-01-30T15:31:21.006Z,13.40
2023-01-30T15:33:55.139Z,13.68
2023-01-30T15:36:35.634Z,13.07
2023-01-30T15:39:19.364Z,13.60
2023-01-30T15:41:49.447Z,14.07
2023-01-30T15:44:47.941Z,13.37
2023-01-30T15:47:40.094Z,13.30
2023-01-30T15:50:11.553Z,13.30
2023-01-30T15:52:44.619Z,14.53
2023-01-30T15:55:20.354Z,13.93
2023-01-30T15:57:53.447Z,12.50
2023-01-30T16:00:30.492Z,11.23
2023-01-30T16:03:02.046Z,12.53
2023-01-30T16:05:31.985Z,12.80
2023-01-30T16:08:19.828Z,12.20
2023-01-30T16:10:50.215Z,12.63
2023-01-30T16:13:23.900Z,33.37
2023-01-30T16:16:02.142Z,24.43
2023-01-30T16:18:52.143Z,26.17
2023-01-30T16:21:33.745Z,18.75
2023-01-30T16:24:17.002Z,17.07
2023-01-30T16:26:51.690Z,15.67
2023-01-30T16:29:28.481Z,15.10
2023-01-30T16:32:00.104Z,14.53
2023-01-30T16:34:32.979Z,15.03
2023-01-30T16:37:07.535Z,13.60
2023-01-30T16:39:38.260Z,13.60
2023-01-30T16:42:29.231Z,14.83
2023-01-30T16:45:42.705Z,13.13
2023-01-30T16:48:30.882Z,12.93
2023-01-30T16:51:16.368Z,14.67
2023-01-30T16:54:02.700Z,13.17
2023-01-30T16:56:36.153Z,12.53
2023-01-30T16:59:07.259Z,13.62
2023-01-30T17:01:40.434Z,13.03
2023-01-30T17:04:21.595Z,12.23
2023-01-30T17:06:55.518Z,13.17
2023-01-30T17:09:44.312Z,12.88
2023-01-30T17:12:42.832Z,11.03
2023-01-30T17:15:31.308Z,13.83
2023-01-30T17:18:06.225Z,13.07
2023-01-30T17:20:54.941Z,12.37
2023-01-30T17:23:36.370Z,12.50
2023-01-30T17:26:26.693Z,15.40
2023-01-30T17:28:59.894Z,12.37
2023-01-30T17:31:43.789Z,11.77
2023-01-30T17:34:17.413Z,12.90
2023-01-30T17:39:29.775Z,10.73
2023-01-30T17:42:10.569Z,10.70
2023-01-30T17:44:45.106Z,10.73
2023-01-30T17:47:26.776Z,12.27
2023-01-30T17:50:02.771Z,11.47
2023-01-30T17:52:36.182Z,11.83
2023-01-30T17:55:13.710Z,10.70
2023-01-30T17:57:50.679Z,12.60
2023-01-30T18:00:29.137Z,11.90
2023-01-30T18:03:07.321Z,11.00
2023-01-30T18:05:44.757Z,9.87
2023-01-30T18:08:18.424Z,11.47
2023-01-30T18:10:54.517Z,10.23
2023-01-30T18:13:31.162Z,10.47
2023-01-30T18:16:26.402Z,9.83
2023-01-30T18:18:56.792Z,9.58
2023-01-30T18:21:28.228Z,9.43
2023-01-30T18:23:57.070Z,9.17
2023-01-30T18:26:27.210Z,9.87
2023-01-30T18:28:56.586Z,10.17
2023-01-30T18:31:28.590Z,9.67
2023-01-30T18:33:58.511Z,8.50
2023-01-30T18:36:29.345Z,8.93
2023-01-30T18:38:58.292Z,7.97
2023-01-30T18:41:28.599Z,8.33
2023-01-30T18:44:00.395Z,9.83
2023-01-30T18:46:32.206Z,10.77
2023-01-30T18:49:01.758Z,8.87
2023-01-30T18:51:33.970Z,8.37
2023-01-30T18:54:03.457Z,9.70
2023-01-30T18:56:35.348Z,9.83
2023-01-30T18:59:06.013Z,9.87
2023-01-30T19:01:42.029Z,9.20
2023-01-30T19:04:12.167Z,9.20
2023-01-30T19:06:45.357Z,9.37
2023-01-30T19:09:21.257Z,10.00
2023-01-30T19:12:13.961Z,9.13
2023-01-30T19:14:47.934Z,9.87
2023-01-30T19:17:24.143Z,8.87
2023-01-30T19:20:18.216Z,10.03
2023-01-30T19:23:02.809Z,9.95
2023-01-30T19:25:40.182Z,7.93
2023-01-30T19:28:14.772Z,9.63
2023-01-30T19:30:51.576Z,8.93
2023-01-30T19:33:31.789Z,9.43
2023-01-30T19:36:15.722Z,8.60
2023-01-30T19:38:52.498Z,8.77
2023-01-30T19:41:30.799Z,9.93
2023-01-30T19:44:09.086Z,9.60
2023-01-30T19:46:41.917Z,9.90
2023-01-30T19:49:17.771Z,8.43
2023-01-30T19:51:52.585Z,9.33
2023-01-30T19:54:31.440Z,8.15
2023-01-30T19:57:20.517Z,9.03
2023-01-30T19:59:53.235Z,7.83
2023-01-30T20:02:31.214Z,7.97
2023-01-30T20:05:07.343Z,8.87
2023-01-30T20:07:45.459Z,10.17
2023-01-30T20:10:22.554Z,8.87
2023-01-30T20:13:04.069Z,9.83
2023-01-30T20:15:48.653Z,9.20
2023-01-30T20:18:29.808Z,9.00
2023-01-30T20:21:12.672Z,9.40
2023-01-30T20:23:46.850Z,10.40
2023-01-30T20:26:20.538Z,10.67
2023-01-30T20:28:54.223Z,9.10
2023-01-30T20:31:30.629Z,9.45
2023-01-30T20:34:09.290Z,8.90
2023-01-30T20:36:39.128Z,8.77
2023-01-30T20:39:09.255Z,8.27
2023-01-30T20:41:38.938Z,8.17
2023-01-30T20:44:11.359Z,8.10
2023-01-30T20:46:42.399Z,8.23
2023-01-30T20:49:14.514Z,8.40
2023-01-30T20:51:44.810Z,6.20
2023-01-30T20:54:14.792Z,9.27
2023-01-30T20:56:46.021Z,10.00
2023-01-30T20:59:17.368Z,8.90
2023-01-30T21:01:46.473Z,8.93
2023-01-30T21:04:17.225Z,9.67
2023-01-30T21:06:47.174Z,8.23
2023-01-30T21:09:18.426Z,8.43
2023-01-30T21:11:48.104Z,8.77
2023-01-30T21:14:17.474Z,8.97
2023-01-30T21:16:47.084Z,8.77
2023-01-30T21:19:17.510Z,9.87
2023-01-30T21:21:50.202Z,9.43
2023-01-30T21:24:21.971Z,9.77
2023-01-30T21:26:51.388Z,9.63
2023-01-30T21:29:23.543Z,10.07
2023-01-30T21:31:52.992Z,10.73
2023-01-30T21:34:22.660Z,10.10
2023-01-30T21:37:06.136Z,10.43
2023-01-30T21:39:54.384Z,9.87
2023-01-30T21:42:41.650Z,10.20
2023-01-30T21:45:11.111Z,9.63
2023-01-30T21:47:42.228Z,9.55
2023-01-30T21:50:13.236Z,8.53
2023-01-30T21:52:42.327Z,8.63
2023-01-30T21:55:11.700Z,9.33
2023-01-30T21:57:41.702Z,10.10
2023-01-30T22:00:15.904Z,10.07
2023-01-30T22:05:12.928Z,9.10
2023-01-30T22:07:42.109Z,9.20
2023-01-30T22:10:12.416Z,8.70
2023-01-30T22:12:42.280Z,8.07
2023-01-30T22:15:12.722Z,8.17
2023-01-30T22:17:42.126Z,7.97
2023-01-30T22:20:13.452Z,8.40
2023-01-30T22:22:42.648Z,8.00
2023-01-30T22:25:12.616Z,7.50
2023-01-30T22:27:42.008Z,7.77
2023-01-30T22:30:14.542Z,7.60
2023-01-30T22:32:43.543Z,7.30
2023-01-30T22:35:12.600Z,7.33
2023-01-30T22:37:41.879Z,7.30
2023-01-30T22:40:12.880Z,8.27
2023-01-30T22:42:48.760Z,7.00
2023-01-30T22:45:17.252Z,7.80
2023-01-30T22:47:46.227Z,7.30
2023-01-30T22:50:16.852Z,8.60
2023-01-30T22:52:48.812Z,7.30
2023-01-30T22:55:18.471Z,7.63
2023-01-30T22:57:48.446Z,7.70
2023-01-30T23:00:19.778Z,8.00
2023-01-30T23:02:49.135Z,7.53
2023-01-30T23:05:19.063Z,8.90
2023-01-30T23:07:49.026Z,8.23
2023-01-30T23:10:18.529Z,8.47
2023-01-30T23:13:05.890Z,7.90
2023-01-30T23:15:39.065Z,8.10
2023-01-30T23:18:28.614Z,8.40
2023-01-30T23:20:57.693Z,6.57
2023-01-30T23:23:28.633Z,6.83
2023-01-30T23:26:01.041Z,6.50
2023-01-30T23:28:31.158Z,6.13
2023-01-30T23:31:06.966Z,6.23
2023-01-30T23:33:36.555Z,6.67
2023-01-30T23:36:08.280Z,6.53
2023-01-30T23:38:38.872Z,7.43
2023-01-30T23:41:11.905Z,6.83
2023-01-30T23:43:42.732Z,6.20
2023-01-30T23:46:17.269Z,6.90
2023-01-30T23:48:48.363Z,6.60
2023-01-30T23:51:20.476Z,7.00
2023-01-30T23:53:50.320Z,6.60
2023-01-30T23:56:22.147Z,6.93
2023-01-30T23:58:51.354Z,6.70
